sensor_id;sensor_type;location;lat;lon;timestamp;temperature;humidity
13322;DHT22;6730;46.248;6.930;2023-05-10T00:00:39;13.20;99.90
13322;DHT22;6730;46.248;6.930;2023-05-10T00:03:04;13.00;99.90
13322;DHT22;6730;46.248;6.930;2023-05-10T00:05:31;12.80;99.90
13322;DHT22;6730;46.248;6.930;2023-05-10T00:07:57;12.60;99.90
13322;DHT22;6730;46.248;6.930;2023-05-10T00:10:22;12.80;99.90
13322;DHT22;6730;46.248;6.930;2023-05-10T00:12:48;12.70;99.90
13322;DHT22;6730;46.248;6.930;2023-05-10T00:15:14;12.30;99.90
13322;DHT22;6730;46.248;6.930;2023-05-10T00:17:39;12.10;99.90
13322;DHT22;6730;46.248;6.930;2023-05-10T00:20:06;11.70;99.90
13322;DHT22;6730;46.248;6.930;2023-05-10T00:22:32;11.50;99.90
13322;DHT22;6730;46.248;6.930;2023-05-10T00:24:58;11.50;99.90
13322;DHT22;6730;46.248;6.930;2023-05-10T00:27:24;11.40;99.90
13322;DHT22;6730;46.248;6.930;2023-05-10T00:29:50;11.30;99.90
13322;DHT22;6730;46.248;6.930;2023-05-10T00:32:15;11.30;99.90
13322;DHT22;6730;46.248;6.930;2023-05-10T00:34:42;11.30;99.90
13322;DHT22;6730;46.248;6.930;2023-05-10T00:37:08;11.20;99.90
13322;DHT22;6730;46.248;6.930;2023-05-10T00:39:33;11.20;99.90
13322;DHT22;6730;46.248;6.930;2023-05-10T00:41:59;11.40;99.90
13322;DHT22;6730;46.248;6.930;2023-05-10T00:44:25;11.60;99.90
13322;DHT22;6730;46.248;6.930;2023-05-10T00:46:51;11.80;99.90
13322;DHT22;6730;46.248;6.930;2023-05-10T00:49:17;12.00;99.90
13322;DHT22;6730;46.248;6.930;2023-05-10T00:51:43;11.90;99.90
13322;DHT22;6730;46.248;6.930;2023-05-10T00:54:12;11.70;99.90
13322;DHT22;6730;46.248;6.930;2023-05-10T00:56:39;11.60;99.90
13322;DHT22;6730;46.248;6.930;2023-05-10T00:59:05;11.60;99.90
13322;DHT22;6730;46.248;6.930;2023-05-10T01:01:32;11.80;99.90
13322;DHT22;6730;46.248;6.930;2023-05-10T01:03:58;11.70;99.90
13322;DHT22;6730;46.248;6.930;2023-05-10T01:06:24;12.00;99.90
13322;DHT22;6730;46.248;6.930;2023-05-10T01:08:50;12.20;99.90
13322;DHT22;6730;46.248;6.930;2023-05-10T01:11:16;12.20;99.90
13322;DHT22;6730;46.248;6.930;2023-05-10T01:13:43;12.20;99.90
13322;DHT22;6730;46.248;6.930;2023-05-10T01:16:09;12.20;99.90
13322;DHT22;6730;46.248;6.930;2023-05-10T01:18:39;12.20;99.90
13322;DHT22;6730;46.248;6.930;2023-05-10T01:24:01;12.10;99.90
13322;DHT22;6730;46.248;6.930;2023-05-10T01:29:45;12.20;99.90
13322;DHT22;6730;46.248;6.930;2023-05-10T01:36:02;12.10;99.90
13322;DHT22;6730;46.248;6.930;2023-05-10T01:38:53;12.00;99.90
13322;DHT22;6730;46.248;6.930;2023-05-10T01:41:40;11.90;99.90
13322;DHT22;6730;46.248;6.930;2023-05-10T01:46:39;11.60;99.90
13322;DHT22;6730;46.248;6.930;2023-05-10T01:49:13;11.70;99.90
13322;DHT22;6730;46.248;6.930;2023-05-10T01:51:47;11.60;99.90
13322;DHT22;6730;46.248;6.930;2023-05-10T01:54:14;11.70;99.90
13322;DHT22;6730;46.248;6.930;2023-05-10T01:56:44;11.60;99.90
13322;DHT22;6730;46.248;6.930;2023-05-10T01:59:15;11.40;99.90
13322;DHT22;6730;46.248;6.930;2023-05-10T02:01:43;11.50;99.90
13322;DHT22;6730;46.248;6.930;2023-05-10T02:04:11;11.80;99.90
13322;DHT22;6730;46.248;6.930;2023-05-10T02:06:40;11.90;99.90
13322;DHT22;6730;46.248;6.930;2023-05-10T02:09:07;11.90;99.90
13322;DHT22;6730;46.248;6.930;2023-05-10T02:11:34;12.00;99.90
13322;DHT22;6730;46.248;6.930;2023-05-10T02:14:02;11.50;99.90
13322;DHT22;6730;46.248;6.930;2023-05-10T02:16:29;11.50;99.90
13322;DHT22;6730;46.248;6.930;2023-05-10T02:18:57;11.70;99.90
13322;DHT22;6730;46.248;6.930;2023-05-10T02:21:24;11.40;99.90
13322;DHT22;6730;46.248;6.930;2023-05-10T02:23:52;11.70;99.90
13322;DHT22;6730;46.248;6.930;2023-05-10T02:26:21;12.00;99.90
13322;DHT22;6730;46.248;6.930;2023-05-10T02:28:49;12.10;99.90
13322;DHT22;6730;46.248;6.930;2023-05-10T02:31:15;12.00;99.90
13322;DHT22;6730;46.248;6.930;2023-05-10T02:33:42;11.90;99.90
13322;DHT22;6730;46.248;6.930;2023-05-10T02:36:09;11.90;99.90
13322;DHT22;6730;46.248;6.930;2023-05-10T02:38:36;12.00;99.90
13322;DHT22;6730;46.248;6.930;2023-05-10T02:41:03;12.00;99.90
13322;DHT22;6730;46.248;6.930;2023-05-10T02:43:32;12.10;99.90
13322;DHT22;6730;46.248;6.930;2023-05-10T02:45:58;12.10;99.90
13322;DHT22;6730;46.248;6.930;2023-05-10T02:48:24;12.00;99.90
13322;DHT22;6730;46.248;6.930;2023-05-10T02:50:52;12.00;99.90
13322;DHT22;6730;46.248;6.930;2023-05-10T02:53:23;12.10;99.90
13322;DHT22;6730;46.248;6.930;2023-05-10T02:55:51;12.30;99.90
13322;DHT22;6730;46.248;6.930;2023-05-10T02:58:17;11.90;99.90
13322;DHT22;6730;46.248;6.930;2023-05-10T03:00:45;12.10;99.90
13322;DHT22;6730;46.248;6.930;2023-05-10T03:03:13;12.40;99.90
13322;DHT22;6730;46.248;6.930;2023-05-10T03:05:38;12.40;99.90
13322;DHT22;6730;46.248;6.930;2023-05-10T03:08:04;12.20;99.90
13322;DHT22;6730;46.248;6.930;2023-05-10T03:10:32;11.80;99.90
13322;DHT22;6730;46.248;6.930;2023-05-10T03:16:18;11.70;99.90
13322;DHT22;6730;46.248;6.930;2023-05-10T03:18:54;11.90;99.90
13322;DHT22;6730;46.248;6.930;2023-05-10T03:21:22;12.00;99.90
13322;DHT22;6730;46.248;6.930;2023-05-10T03:23:59;12.00;99.90
13322;DHT22;6730;46.248;6.930;2023-05-10T03:26:27;11.80;99.90
13322;DHT22;6730;46.248;6.930;2023-05-10T03:28:54;11.50;99.90
13322;DHT22;6730;46.248;6.930;2023-05-10T03:31:20;11.30;99.90
13322;DHT22;6730;46.248;6.930;2023-05-10T03:33:47;11.10;99.90
13322;DHT22;6730;46.248;6.930;2023-05-10T03:36:13;11.50;99.90
13322;DHT22;6730;46.248;6.930;2023-05-10T03:38:39;11.50;99.90
13322;DHT22;6730;46.248;6.930;2023-05-10T03:41:05;11.40;99.90
13322;DHT22;6730;46.248;6.930;2023-05-10T03:43:30;11.40;99.90
13322;DHT22;6730;46.248;6.930;2023-05-10T03:45:56;11.50;99.90
13322;DHT22;6730;46.248;6.930;2023-05-10T03:48:21;11.80;99.90
13322;DHT22;6730;46.248;6.930;2023-05-10T03:50:47;11.90;99.90
13322;DHT22;6730;46.248;6.930;2023-05-10T03:53:14;12.00;99.90
13322;DHT22;6730;46.248;6.930;2023-05-10T03:55:40;11.90;99.90
13322;DHT22;6730;46.248;6.930;2023-05-10T03:58:06;12.00;99.90
13322;DHT22;6730;46.248;6.930;2023-05-10T04:00:32;12.00;99.90
13322;DHT22;6730;46.248;6.930;2023-05-10T04:02:58;12.00;99.90
13322;DHT22;6730;46.248;6.930;2023-05-10T04:05:24;12.20;99.90
13322;DHT22;6730;46.248;6.930;2023-05-10T04:07:50;12.00;99.90
13322;DHT22;6730;46.248;6.930;2023-05-10T04:10:17;11.50;99.90
13322;DHT22;6730;46.248;6.930;2023-05-10T04:12:47;11.60;99.90
13322;DHT22;6730;46.248;6.930;2023-05-10T04:15:13;11.80;99.90
13322;DHT22;6730;46.248;6.930;2023-05-10T04:17:39;11.60;99.90
13322;DHT22;6730;46.248;6.930;2023-05-10T04:20:05;11.50;99.90
13322;DHT22;6730;46.248;6.930;2023-05-10T04:22:32;11.60;99.90
13322;DHT22;6730;46.248;6.930;2023-05-10T04:24:57;11.70;99.90
13322;DHT22;6730;46.248;6.930;2023-05-10T04:27:23;11.90;99.90
13322;DHT22;6730;46.248;6.930;2023-05-10T04:29:48;12.00;99.90
13322;DHT22;6730;46.248;6.930;2023-05-10T04:32:14;12.10;99.90
13322;DHT22;6730;46.248;6.930;2023-05-10T04:34:41;12.20;99.90
13322;DHT22;6730;46.248;6.930;2023-05-10T04:37:07;12.30;99.90
13322;DHT22;6730;46.248;6.930;2023-05-10T04:39:32;12.40;99.90
13322;DHT22;6730;46.248;6.930;2023-05-10T04:41:58;12.20;99.90
13322;DHT22;6730;46.248;6.930;2023-05-10T04:44:24;12.00;99.90
13322;DHT22;6730;46.248;6.930;2023-05-10T04:46:49;11.60;99.90
13322;DHT22;6730;46.248;6.930;2023-05-10T04:49:15;11.20;99.90
13322;DHT22;6730;46.248;6.930;2023-05-10T04:51:42;11.10;99.90
13322;DHT22;6730;46.248;6.930;2023-05-10T04:54:07;10.90;99.90
13322;DHT22;6730;46.248;6.930;2023-05-10T04:56:33;10.80;99.90
13322;DHT22;6730;46.248;6.930;2023-05-10T04:58:59;10.90;99.90
13322;DHT22;6730;46.248;6.930;2023-05-10T05:01:25;10.90;99.90
13322;DHT22;6730;46.248;6.930;2023-05-10T05:03:50;10.90;99.90
13322;DHT22;6730;46.248;6.930;2023-05-10T05:06:18;10.70;99.90
13322;DHT22;6730;46.248;6.930;2023-05-10T05:08:44;10.70;99.90
13322;DHT22;6730;46.248;6.930;2023-05-10T05:11:09;10.80;99.90
13322;DHT22;6730;46.248;6.930;2023-05-10T05:13:35;10.80;99.90
13322;DHT22;6730;46.248;6.930;2023-05-10T05:16:04;10.50;99.90
13322;DHT22;6730;46.248;6.930;2023-05-10T05:18:30;10.10;99.90
13322;DHT22;6730;46.248;6.930;2023-05-10T05:20:56;9.90;99.90
13322;DHT22;6730;46.248;6.930;2023-05-10T05:23:21;10.20;99.90
13322;DHT22;6730;46.248;6.930;2023-05-10T05:25:51;10.20;99.90
13322;DHT22;6730;46.248;6.930;2023-05-10T05:28:17;10.20;99.90
13322;DHT22;6730;46.248;6.930;2023-05-10T05:30:43;10.50;99.90
13322;DHT22;6730;46.248;6.930;2023-05-10T05:33:09;10.90;99.90
13322;DHT22;6730;46.248;6.930;2023-05-10T05:35:34;11.20;99.90
13322;DHT22;6730;46.248;6.930;2023-05-10T05:38:00;11.30;99.90
13322;DHT22;6730;46.248;6.930;2023-05-10T05:40:26;11.40;99.90
13322;DHT22;6730;46.248;6.930;2023-05-10T05:42:51;11.50;99.90
13322;DHT22;6730;46.248;6.930;2023-05-10T05:45:17;11.50;99.90
13322;DHT22;6730;46.248;6.930;2023-05-10T05:47:43;11.40;99.90
13322;DHT22;6730;46.248;6.930;2023-05-10T05:50:09;11.30;99.90
13322;DHT22;6730;46.248;6.930;2023-05-10T05:52:35;11.30;99.90
13322;DHT22;6730;46.248;6.930;2023-05-10T05:55:01;11.40;99.90
13322;DHT22;6730;46.248;6.930;2023-05-10T05:57:27;11.20;99.90
13322;DHT22;6730;46.248;6.930;2023-05-10T05:59:52;11.10;99.90
13322;DHT22;6730;46.248;6.930;2023-05-10T06:02:18;11.10;99.90
13322;DHT22;6730;46.248;6.930;2023-05-10T06:04:44;11.10;99.90
13322;DHT22;6730;46.248;6.930;2023-05-10T06:07:09;11.20;99.90
13322;DHT22;6730;46.248;6.930;2023-05-10T06:09:35;11.30;99.90
13322;DHT22;6730;46.248;6.930;2023-05-10T06:12:01;11.30;99.90
13322;DHT22;6730;46.248;6.930;2023-05-10T06:14:27;11.40;99.90
13322;DHT22;6730;46.248;6.930;2023-05-10T06:16:52;11.30;99.90
13322;DHT22;6730;46.248;6.930;2023-05-10T06:19:18;11.20;99.90
13322;DHT22;6730;46.248;6.930;2023-05-10T06:21:44;11.20;99.90
13322;DHT22;6730;46.248;6.930;2023-05-10T06:24:09;11.20;99.90
13322;DHT22;6730;46.248;6.930;2023-05-10T06:26:35;11.30;99.90
13322;DHT22;6730;46.248;6.930;2023-05-10T06:29:01;11.60;99.90
13322;DHT22;6730;46.248;6.930;2023-05-10T06:31:27;11.60;99.90
13322;DHT22;6730;46.248;6.930;2023-05-10T06:33:52;11.50;99.90
13322;DHT22;6730;46.248;6.930;2023-05-10T06:36:18;11.40;99.90
13322;DHT22;6730;46.248;6.930;2023-05-10T06:38:44;11.10;99.90
13322;DHT22;6730;46.248;6.930;2023-05-10T06:41:10;11.00;99.90
13322;DHT22;6730;46.248;6.930;2023-05-10T06:43:35;11.00;99.90
13322;DHT22;6730;46.248;6.930;2023-05-10T06:46:02;11.10;99.90
13322;DHT22;6730;46.248;6.930;2023-05-10T06:48:27;11.10;99.90
13322;DHT22;6730;46.248;6.930;2023-05-10T06:50:53;11.10;99.90
13322;DHT22;6730;46.248;6.930;2023-05-10T06:53:19;11.10;99.90
13322;DHT22;6730;46.248;6.930;2023-05-10T06:55:45;11.20;99.90
13322;DHT22;6730;46.248;6.930;2023-05-10T06:58:11;11.40;99.90
13322;DHT22;6730;46.248;6.930;2023-05-10T07:00:37;11.50;99.90
13322;DHT22;6730;46.248;6.930;2023-05-10T07:03:06;11.60;99.90
13322;DHT22;6730;46.248;6.930;2023-05-10T07:05:31;11.60;99.90
13322;DHT22;6730;46.248;6.930;2023-05-10T07:07:57;11.60;99.90
13322;DHT22;6730;46.248;6.930;2023-05-10T07:10:23;11.60;99.90
13322;DHT22;6730;46.248;6.930;2023-05-10T07:12:48;11.80;99.90
13322;DHT22;6730;46.248;6.930;2023-05-10T07:15:14;11.70;99.90
13322;DHT22;6730;46.248;6.930;2023-05-10T07:17:41;11.30;99.90
13322;DHT22;6730;46.248;6.930;2023-05-10T07:20:07;11.00;99.90
13322;DHT22;6730;46.248;6.930;2023-05-10T07:22:33;10.80;99.90
13322;DHT22;6730;46.248;6.930;2023-05-10T07:24:58;10.60;99.90
13322;DHT22;6730;46.248;6.930;2023-05-10T07:27:24;10.60;99.90
13322;DHT22;6730;46.248;6.930;2023-05-10T07:29:50;10.50;99.90
13322;DHT22;6730;46.248;6.930;2023-05-10T07:32:16;10.50;99.90
13322;DHT22;6730;46.248;6.930;2023-05-10T07:34:41;10.50;99.90
13322;DHT22;6730;46.248;6.930;2023-05-10T07:37:07;10.40;99.90
13322;DHT22;6730;46.248;6.930;2023-05-10T07:39:33;10.40;99.90
13322;DHT22;6730;46.248;6.930;2023-05-10T07:41:58;10.40;99.90
13322;DHT22;6730;46.248;6.930;2023-05-10T07:44:24;10.40;99.90
13322;DHT22;6730;46.248;6.930;2023-05-10T07:46:50;10.50;99.90
13322;DHT22;6730;46.248;6.930;2023-05-10T07:49:16;10.60;99.90
13322;DHT22;6730;46.248;6.930;2023-05-10T07:51:41;10.60;99.90
13322;DHT22;6730;46.248;6.930;2023-05-10T07:54:08;10.90;99.90
13322;DHT22;6730;46.248;6.930;2023-05-10T07:56:34;11.00;99.90
13322;DHT22;6730;46.248;6.930;2023-05-10T07:59:00;11.30;99.90
13322;DHT22;6730;46.248;6.930;2023-05-10T08:01:26;11.60;99.90
13322;DHT22;6730;46.248;6.930;2023-05-10T08:03:55;11.80;99.90
13322;DHT22;6730;46.248;6.930;2023-05-10T08:06:20;11.40;99.90
13322;DHT22;6730;46.248;6.930;2023-05-10T08:08:47;10.90;99.90
13322;DHT22;6730;46.248;6.930;2023-05-10T08:11:18;10.50;99.90
13322;DHT22;6730;46.248;6.930;2023-05-10T08:13:45;10.30;99.90
13322;DHT22;6730;46.248;6.930;2023-05-10T08:16:11;10.10;99.90
13322;DHT22;6730;46.248;6.930;2023-05-10T08:18:37;10.10;99.90
13322;DHT22;6730;46.248;6.930;2023-05-10T08:21:03;10.30;99.90
13322;DHT22;6730;46.248;6.930;2023-05-10T08:23:28;10.50;99.90
13322;DHT22;6730;46.248;6.930;2023-05-10T08:25:54;10.80;99.90
13322;DHT22;6730;46.248;6.930;2023-05-10T08:28:20;10.80;99.90
13322;DHT22;6730;46.248;6.930;2023-05-10T08:30:45;10.90;99.90
13322;DHT22;6730;46.248;6.930;2023-05-10T08:33:11;11.00;99.90
13322;DHT22;6730;46.248;6.930;2023-05-10T08:35:36;11.10;99.90
13322;DHT22;6730;46.248;6.930;2023-05-10T08:38:02;11.10;99.90
13322;DHT22;6730;46.248;6.930;2023-05-10T08:40:28;11.40;99.90
13322;DHT22;6730;46.248;6.930;2023-05-10T08:43:05;11.20;99.90
13322;DHT22;6730;46.248;6.930;2023-05-10T08:45:33;10.90;99.90
13322;DHT22;6730;46.248;6.930;2023-05-10T08:48:02;10.70;99.90
13322;DHT22;6730;46.248;6.930;2023-05-10T08:50:27;10.70;99.90
13322;DHT22;6730;46.248;6.930;2023-05-10T08:52:57;10.90;99.90
13322;DHT22;6730;46.248;6.930;2023-05-10T08:55:25;11.10;99.90
13322;DHT22;6730;46.248;6.930;2023-05-10T08:57:51;11.20;99.90
13322;DHT22;6730;46.248;6.930;2023-05-10T09:00:17;10.90;99.90
13322;DHT22;6730;46.248;6.930;2023-05-10T09:02:43;11.00;99.90
13322;DHT22;6730;46.248;6.930;2023-05-10T09:05:11;11.20;99.90
13322;DHT22;6730;46.248;6.930;2023-05-10T09:07:37;11.40;99.90
13322;DHT22;6730;46.248;6.930;2023-05-10T09:10:04;11.60;99.90
13322;DHT22;6730;46.248;6.930;2023-05-10T09:12:30;11.90;99.90
13322;DHT22;6730;46.248;6.930;2023-05-10T09:14:58;12.10;99.90
13322;DHT22;6730;46.248;6.930;2023-05-10T09:17:25;12.20;99.90
13322;DHT22;6730;46.248;6.930;2023-05-10T09:20:03;12.30;99.90
13322;DHT22;6730;46.248;6.930;2023-05-10T09:22:30;12.20;99.90
13322;DHT22;6730;46.248;6.930;2023-05-10T09:27:30;12.20;99.90
13322;DHT22;6730;46.248;6.930;2023-05-10T09:29:56;12.00;99.90
13322;DHT22;6730;46.248;6.930;2023-05-10T09:32:36;11.90;99.90
13322;DHT22;6730;46.248;6.930;2023-05-10T09:35:13;11.50;99.90
13322;DHT22;6730;46.248;6.930;2023-05-10T09:37:39;11.60;99.90
13322;DHT22;6730;46.248;6.930;2023-05-10T09:40:12;11.70;99.90
13322;DHT22;6730;46.248;6.930;2023-05-10T09:42:38;11.70;99.90
13322;DHT22;6730;46.248;6.930;2023-05-10T09:45:04;11.60;99.90
13322;DHT22;6730;46.248;6.930;2023-05-10T09:47:34;11.60;99.90
13322;DHT22;6730;46.248;6.930;2023-05-10T09:50:01;11.50;99.90
13322;DHT22;6730;46.248;6.930;2023-05-10T09:52:52;11.50;99.90
13322;DHT22;6730;46.248;6.930;2023-05-10T09:55:23;11.30;99.90
13322;DHT22;6730;46.248;6.930;2023-05-10T09:57:58;10.80;99.90
13322;DHT22;6730;46.248;6.930;2023-05-10T10:00:24;10.40;99.90
13322;DHT22;6730;46.248;6.930;2023-05-10T10:02:59;10.30;99.90
13322;DHT22;6730;46.248;6.930;2023-05-10T10:05:44;10.40;99.90
13322;DHT22;6730;46.248;6.930;2023-05-10T10:08:10;10.40;99.90
13322;DHT22;6730;46.248;6.930;2023-05-10T10:10:37;10.40;99.90
13322;DHT22;6730;46.248;6.930;2023-05-10T10:13:05;10.70;99.90
13322;DHT22;6730;46.248;6.930;2023-05-10T10:15:33;10.40;99.90
13322;DHT22;6730;46.248;6.930;2023-05-10T10:17:59;10.60;99.90
13322;DHT22;6730;46.248;6.930;2023-05-10T10:20:26;11.00;99.90
13322;DHT22;6730;46.248;6.930;2023-05-10T10:22:52;11.30;99.90
13322;DHT22;6730;46.248;6.930;2023-05-10T10:25:19;11.50;99.90
13322;DHT22;6730;46.248;6.930;2023-05-10T10:30:37;11.20;99.90
13322;DHT22;6730;46.248;6.930;2023-05-10T10:33:17;11.20;99.90
13322;DHT22;6730;46.248;6.930;2023-05-10T10:35:45;11.40;99.90
13322;DHT22;6730;46.248;6.930;2023-05-10T10:38:13;11.20;99.90
13322;DHT22;6730;46.248;6.930;2023-05-10T10:40:39;11.30;99.90
13322;DHT22;6730;46.248;6.930;2023-05-10T10:46:25;11.80;99.90
13322;DHT22;6730;46.248;6.930;2023-05-10T10:49:09;12.00;99.90
13322;DHT22;6730;46.248;6.930;2023-05-10T10:51:38;12.20;99.90
13322;DHT22;6730;46.248;6.930;2023-05-10T10:54:10;12.20;99.90
13322;DHT22;6730;46.248;6.930;2023-05-10T10:56:36;12.20;99.90
13322;DHT22;6730;46.248;6.930;2023-05-10T10:59:01;12.20;99.90
13322;DHT22;6730;46.248;6.930;2023-05-10T11:01:35;12.20;99.90
13322;DHT22;6730;46.248;6.930;2023-05-10T11:06:33;12.20;99.90
13322;DHT22;6730;46.248;6.930;2023-05-10T11:09:11;12.50;99.90
13322;DHT22;6730;46.248;6.930;2023-05-10T11:11:48;12.50;99.90
13322;DHT22;6730;46.248;6.930;2023-05-10T11:14:20;12.30;99.90
13322;DHT22;6730;46.248;6.930;2023-05-10T11:16:46;12.40;99.90
13322;DHT22;6730;46.248;6.930;2023-05-10T11:19:13;12.60;99.90
13322;DHT22;6730;46.248;6.930;2023-05-10T11:21:50;12.80;99.90
13322;DHT22;6730;46.248;6.930;2023-05-10T11:24:18;12.90;99.90
13322;DHT22;6730;46.248;6.930;2023-05-10T11:26:44;12.90;99.90
13322;DHT22;6730;46.248;6.930;2023-05-10T11:29:12;13.10;99.90
13322;DHT22;6730;46.248;6.930;2023-05-10T11:31:43;13.20;99.90
13322;DHT22;6730;46.248;6.930;2023-05-10T11:34:09;13.30;99.90
13322;DHT22;6730;46.248;6.930;2023-05-10T11:36:36;12.70;99.90
13322;DHT22;6730;46.248;6.930;2023-05-10T11:39:02;12.50;99.90
13322;DHT22;6730;46.248;6.930;2023-05-10T11:41:30;12.80;99.90
13322;DHT22;6730;46.248;6.930;2023-05-10T11:43:57;13.00;99.90
13322;DHT22;6730;46.248;6.930;2023-05-10T11:46:27;12.50;99.90
13322;DHT22;6730;46.248;6.930;2023-05-10T11:49:01;12.40;99.90
13322;DHT22;6730;46.248;6.930;2023-05-10T11:51:29;12.30;99.90
13322;DHT22;6730;46.248;6.930;2023-05-10T11:53:58;12.30;99.90
13322;DHT22;6730;46.248;6.930;2023-05-10T11:56:23;12.50;99.90
13322;DHT22;6730;46.248;6.930;2023-05-10T11:58:57;12.30;99.90
13322;DHT22;6730;46.248;6.930;2023-05-10T12:01:27;12.30;99.90
13322;DHT22;6730;46.248;6.930;2023-05-10T12:03:54;12.60;99.90
13322;DHT22;6730;46.248;6.930;2023-05-10T12:06:20;12.40;99.90
13322;DHT22;6730;46.248;6.930;2023-05-10T12:08:47;12.60;99.90
13322;DHT22;6730;46.248;6.930;2023-05-10T12:11:18;13.00;99.90
13322;DHT22;6730;46.248;6.930;2023-05-10T12:13:44;13.50;99.90
13322;DHT22;6730;46.248;6.930;2023-05-10T12:16:20;14.20;99.90
13322;DHT22;6730;46.248;6.930;2023-05-10T12:18:49;14.50;99.90
13322;DHT22;6730;46.248;6.930;2023-05-10T12:21:17;14.70;99.90
13322;DHT22;6730;46.248;6.930;2023-05-10T12:23:45;14.50;99.90
13322;DHT22;6730;46.248;6.930;2023-05-10T12:26:12;14.20;99.90
13322;DHT22;6730;46.248;6.930;2023-05-10T12:28:38;13.80;99.90
13322;DHT22;6730;46.248;6.930;2023-05-10T12:31:07;13.50;99.90
13322;DHT22;6730;46.248;6.930;2023-05-10T12:33:43;13.60;99.90
13322;DHT22;6730;46.248;6.930;2023-05-10T12:36:11;13.50;99.90
13322;DHT22;6730;46.248;6.930;2023-05-10T12:38:38;13.40;99.90
13322;DHT22;6730;46.248;6.930;2023-05-10T12:41:12;13.40;99.90
13322;DHT22;6730;46.248;6.930;2023-05-10T12:43:37;13.30;99.90
13322;DHT22;6730;46.248;6.930;2023-05-10T12:46:24;13.10;99.90
13322;DHT22;6730;46.248;6.930;2023-05-10T12:48:53;13.00;99.90
13322;DHT22;6730;46.248;6.930;2023-05-10T12:51:20;13.10;99.90
13322;DHT22;6730;46.248;6.930;2023-05-10T12:53:47;13.40;99.90
13322;DHT22;6730;46.248;6.930;2023-05-10T12:56:13;13.50;99.90
13322;DHT22;6730;46.248;6.930;2023-05-10T12:58:39;13.70;99.90
13322;DHT22;6730;46.248;6.930;2023-05-10T13:01:05;14.00;99.90
13322;DHT22;6730;46.248;6.930;2023-05-10T13:03:31;13.90;99.90
13322;DHT22;6730;46.248;6.930;2023-05-10T13:05:56;13.80;99.90
13322;DHT22;6730;46.248;6.930;2023-05-10T13:08:22;13.60;99.90
13322;DHT22;6730;46.248;6.930;2023-05-10T13:10:48;13.50;99.90
13322;DHT22;6730;46.248;6.930;2023-05-10T13:13:14;13.50;99.90
13322;DHT22;6730;46.248;6.930;2023-05-10T13:15:40;13.40;99.90
13322;DHT22;6730;46.248;6.930;2023-05-10T13:18:06;13.40;99.90
13322;DHT22;6730;46.248;6.930;2023-05-10T13:20:31;13.20;99.90
13322;DHT22;6730;46.248;6.930;2023-05-10T13:22:57;13.10;99.90
13322;DHT22;6730;46.248;6.930;2023-05-10T13:25:23;13.20;99.90
13322;DHT22;6730;46.248;6.930;2023-05-10T13:27:48;13.10;99.90
13322;DHT22;6730;46.248;6.930;2023-05-10T13:30:14;13.10;99.90
13322;DHT22;6730;46.248;6.930;2023-05-10T13:32:40;13.10;99.90
13322;DHT22;6730;46.248;6.930;2023-05-10T13:35:06;13.00;99.90
13322;DHT22;6730;46.248;6.930;2023-05-10T13:37:32;13.00;99.90
13322;DHT22;6730;46.248;6.930;2023-05-10T13:40:01;13.10;99.90
13322;DHT22;6730;46.248;6.930;2023-05-10T13:42:26;13.10;99.90
13322;DHT22;6730;46.248;6.930;2023-05-10T13:44:52;13.20;99.90
13322;DHT22;6730;46.248;6.930;2023-05-10T13:47:18;13.30;99.90
13322;DHT22;6730;46.248;6.930;2023-05-10T13:49:44;13.40;99.90
13322;DHT22;6730;46.248;6.930;2023-05-10T13:52:09;13.50;99.90
13322;DHT22;6730;46.248;6.930;2023-05-10T13:54:38;13.60;99.90
13322;DHT22;6730;46.248;6.930;2023-05-10T13:57:04;13.70;99.90
13322;DHT22;6730;46.248;6.930;2023-05-10T13:59:30;13.40;99.90
13322;DHT22;6730;46.248;6.930;2023-05-10T14:01:59;13.20;99.90
13322;DHT22;6730;46.248;6.930;2023-05-10T14:04:25;13.00;99.90
13322;DHT22;6730;46.248;6.930;2023-05-10T14:06:51;13.00;99.90
13322;DHT22;6730;46.248;6.930;2023-05-10T14:09:18;13.00;99.90
13322;DHT22;6730;46.248;6.930;2023-05-10T14:11:44;13.00;99.90
13322;DHT22;6730;46.248;6.930;2023-05-10T14:14:10;13.00;99.90
13322;DHT22;6730;46.248;6.930;2023-05-10T14:16:36;12.90;99.90
13322;DHT22;6730;46.248;6.930;2023-05-10T14:19:02;12.80;99.90
13322;DHT22;6730;46.248;6.930;2023-05-10T14:21:28;12.80;99.90
13322;DHT22;6730;46.248;6.930;2023-05-10T14:23:56;12.70;99.90
13322;DHT22;6730;46.248;6.930;2023-05-10T14:26:22;12.60;99.90
13322;DHT22;6730;46.248;6.930;2023-05-10T14:28:47;12.50;99.90
13322;DHT22;6730;46.248;6.930;2023-05-10T14:31:13;12.50;99.90
13322;DHT22;6730;46.248;6.930;2023-05-10T14:33:40;12.30;99.90
13322;DHT22;6730;46.248;6.930;2023-05-10T14:36:06;12.20;99.90
13322;DHT22;6730;46.248;6.930;2023-05-10T14:38:32;12.40;99.90
13322;DHT22;6730;46.248;6.930;2023-05-10T14:40:58;12.70;99.90
13322;DHT22;6730;46.248;6.930;2023-05-10T14:43:24;12.80;99.90
13322;DHT22;6730;46.248;6.930;2023-05-10T14:45:49;12.90;99.90
13322;DHT22;6730;46.248;6.930;2023-05-10T14:48:15;13.10;99.90
13322;DHT22;6730;46.248;6.930;2023-05-10T14:50:43;13.40;99.90
13322;DHT22;6730;46.248;6.930;2023-05-10T14:53:09;13.60;99.90
13322;DHT22;6730;46.248;6.930;2023-05-10T14:55:35;13.70;99.90
13322;DHT22;6730;46.248;6.930;2023-05-10T14:58:02;14.00;99.90
13322;DHT22;6730;46.248;6.930;2023-05-10T15:00:29;14.10;99.90
13322;DHT22;6730;46.248;6.930;2023-05-10T15:02:55;14.10;99.90
13322;DHT22;6730;46.248;6.930;2023-05-10T15:05:20;14.10;99.90
13322;DHT22;6730;46.248;6.930;2023-05-10T15:07:46;14.10;99.90
13322;DHT22;6730;46.248;6.930;2023-05-10T15:10:11;13.90;99.90
13322;DHT22;6730;46.248;6.930;2023-05-10T15:12:38;13.70;99.90
13322;DHT22;6730;46.248;6.930;2023-05-10T15:15:04;13.40;99.90
13322;DHT22;6730;46.248;6.930;2023-05-10T15:17:30;13.30;99.90
13322;DHT22;6730;46.248;6.930;2023-05-10T15:19:56;13.20;99.90
13322;DHT22;6730;46.248;6.930;2023-05-10T15:22:22;13.20;99.90
13322;DHT22;6730;46.248;6.930;2023-05-10T15:24:48;13.50;99.90
13322;DHT22;6730;46.248;6.930;2023-05-10T15:27:13;13.50;99.90
13322;DHT22;6730;46.248;6.930;2023-05-10T15:29:39;13.40;99.90
13322;DHT22;6730;46.248;6.930;2023-05-10T15:32:05;13.20;99.90
13322;DHT22;6730;46.248;6.930;2023-05-10T15:34:30;13.00;99.90
13322;DHT22;6730;46.248;6.930;2023-05-10T15:36:56;12.80;99.90
13322;DHT22;6730;46.248;6.930;2023-05-10T15:39:22;12.70;99.90
13322;DHT22;6730;46.248;6.930;2023-05-10T15:41:48;12.70;99.90
13322;DHT22;6730;46.248;6.930;2023-05-10T15:44:14;12.70;99.90
13322;DHT22;6730;46.248;6.930;2023-05-10T15:46:39;12.60;99.90
13322;DHT22;6730;46.248;6.930;2023-05-10T15:49:05;12.60;99.90
13322;DHT22;6730;46.248;6.930;2023-05-10T15:51:32;12.70;99.90
13322;DHT22;6730;46.248;6.930;2023-05-10T15:54:00;12.90;99.90
13322;DHT22;6730;46.248;6.930;2023-05-10T15:56:27;12.70;99.90
13322;DHT22;6730;46.248;6.930;2023-05-10T15:58:55;12.70;99.90
13322;DHT22;6730;46.248;6.930;2023-05-10T16:01:21;12.80;99.90
13322;DHT22;6730;46.248;6.930;2023-05-10T16:03:47;12.90;99.90
13322;DHT22;6730;46.248;6.930;2023-05-10T16:06:12;13.10;99.90
13322;DHT22;6730;46.248;6.930;2023-05-10T16:08:38;13.10;99.90
13322;DHT22;6730;46.248;6.930;2023-05-10T16:11:04;13.10;99.90